| time (UTC) | temp F | wind direction | speed knots | gust knots | rain 1hr in | rain 24hr in | rain mn in | humidity % | barometer mb |
| 20260906164602 | 88 | 132 | 6.1 | 9.6 | 0.00 | 0.00 | 0.00 | 72 | 1017.2 |
| 20260906163124 | 87 | 129 | 4.3 | 9.6 | 0.00 | 0.00 | 0.00 | 76 | 1017.4 |
| 20260906161605 | 86 | 134 | 4.3 | 9.6 | 0.00 | 0.00 | 0.00 | 77 | 1017.4 |
| 20260906154604 | 85 | 63 | 5.2 | 9.6 | 0.00 | 0.00 | 0.00 | 79 | 1017.3 |
| 20260906153118 | 84 | 85 | 4.3 | 8.7 | 0.00 | 0.00 | 0.00 | 81 | 1017.2 |
| 20260906151606 | 83 | 98 | 4.3 | 8.7 | 0.00 | 0.00 | 0.00 | 83 | 1017.3 |
| 20260906150108 | 81 | 71 | 3.5 | 7.8 | 0.00 | 0.00 | 0.00 | 86 | 1017.4 |
| 20260906144601 | 80 | 64 | 3.5 | 7.8 | 0.00 | 0.00 | 0.00 | 89 | 1017.5 |
| 20260906143103 | 78 | 127 | 4.3 | 8.7 | 0.00 | 0.00 | 0.00 | 90 | 1017.6 |
| 20260906141601 | 78 | 103 | 5.2 | 9.6 | 0.00 | 0.00 | 0.00 | 92 | 1017.6 |
| 20260906140108 | 77 | 143 | 1.7 | 12.2 | 0.00 | 0.00 | 0.00 | 93 | 1017.5 |
| 20260906134601 | 77 | 113 | 5.2 | 9.6 | 0.00 | 0.00 | 0.00 | 94 | 1017.4 |
| 20260906133132 | 76 | 137 | 5.2 | 8.7 | 0.00 | 0.00 | 0.00 | 94 | 1017.4 |
| 20260906131617 | 76 | 103 | 6.1 | 9.6 | 0.00 | 0.00 | 0.00 | 95 | 1017.3 |
| 20260906130118 | 76 | 132 | 2.6 | 8.7 | 0.00 | 0.00 | 0.00 | 95 | 1017.3 |
| 20260906124601 | 76 | 93 | 3.5 | 10.4 | 0.00 | 0.00 | 0.00 | 95 | 1017.2 |
| 20260906123106 | 76 | 46 | 3.5 | 7.8 | 0.00 | 0.00 | 0.00 | 95 | 1017.0 |
| 20260906121620 | 75 | 92 | 3.5 | 8.7 | 0.00 | 0.00 | 0.00 | 95 | 1016.8 |
| 20260906120105 | 75 | 81 | 1.7 | 7.0 | 0.00 | 0.00 | 0.00 | 95 | 1016.5 |
| 20260906114605 | 75 | 69 | 2.6 | 8.7 | 0.00 | 0.00 | 0.00 | 95 | 1016.3 |
| 20260906113106 | 75 | 78 | 2.6 | 7.8 | 0.00 | 0.00 | 0.00 | 95 | 1016.1 |
| 20260906111603 | 75 | 75 | 2.6 | 7.8 | 0.00 | 0.00 | 0.00 | 94 | 1016.1 |
| 20260906110104 | 75 | 107 | 1.7 | 7.8 | 0.00 | 0.00 | 0.00 | 94 | 1016.0 |
| 20260906104600 | 75 | 66 | 1.7 | 7.0 | 0.00 | 0.00 | 0.00 | 94 | 1016.0 |
| 20260906103118 | 76 | 94 | 2.6 | 7.8 | 0.00 | 0.00 | 0.00 | 93 | 1015.8 |
| 20260906101601 | 76 | 78 | 1.7 | 5.2 | 0.00 | 0.00 | 0.00 | 93 | 1015.8 |
| 20260906100112 | 76 | 95 | 1.7 | 7.0 | 0.00 | 0.00 | 0.00 | 93 | 1015.8 |
| 20260906094626 | 76 | 116 | 1.7 | 5.2 | 0.00 | 0.00 | 0.00 | 92 | 1015.8 |
| 20260906093105 | 76 | 53 | 1.7 | 6.1 | 0.00 | 0.00 | 0.00 | 92 | 1015.6 |
| 20260906091604 | 77 | 115 | 0.9 | 6.1 | 0.00 | 0.00 | 0.00 | 91 | 1015.3 |
| 20260906090115 | 77 | 104 | 2.6 | 6.1 | 0.00 | 0.00 | 0.00 | 91 | 1015.2 |
| 20260906084606 | 77 | 113 | 1.7 | 5.2 | 0.00 | 0.00 | 0.00 | 90 | 1015.1 |
| 20260906083102 | 77 | 101 | 1.7 | 6.1 | 0.00 | 0.00 | 0.00 | 89 | 1015.2 |
| 20260906081602 | 77 | 60 | 2.6 | 7.8 | 0.00 | 0.00 | 0.00 | 89 | 1015.3 |
| 20260906080103 | 78 | 71 | 0.9 | 5.2 | 0.00 | 0.00 | 0.00 | 88 | 1015.3 |
| 20260906074605 | 78 | 90 | 2.6 | 7.0 | 0.00 | 0.00 | 0.00 | 87 | 1015.1 |
| 20260906073104 | 78 | 88 | 2.6 | 6.1 | 0.00 | 0.00 | 0.00 | 87 | 1015.1 |
| 20260906071602 | 78 | 109 | 1.7 | 6.1 | 0.00 | 0.00 | 0.00 | 86 | 1015.2 |
| 20260906070100 | 79 | 90 | 1.7 | 5.2 | 0.00 | 0.00 | 0.00 | 86 | 1015.2 |
| 20260906064602 | 79 | 67 | 1.7 | 6.1 | 0.00 | 0.00 | 0.00 | 85 | 1015.3 |
| 20260906063101 | 79 | 109 | 1.7 | 6.1 | 0.00 | 0.00 | 0.00 | 85 | 1015.4 |
| 20260906061607 | 79 | 90 | 2.6 | 7.8 | 0.00 | 0.00 | 0.00 | 84 | 1015.6 |
| 20260906060106 | 79 | 86 | 0.9 | 6.1 | 0.00 | 0.00 | 0.00 | 83 | 1015.7 |
| 20260906054603 | 80 | 36 | 2.6 | 7.8 | 0.00 | 0.00 | 0.00 | 83 | 1015.8 |
| 20260906053100 | 80 | 93 | 1.7 | 7.8 | 0.00 | 0.00 | 0.00 | 81 | 1015.7 |
| 20260906051600 | 81 | 64 | 2.6 | 8.7 | 0.00 | 0.00 | 0.00 | 80 | 1015.7 |
| 20260906050057 | 81 | 74 | 2.6 | 7.0 | 0.00 | 0.00 | 0.00 | 79 | 1015.6 |
| 20260906044603 | 82 | 83 | 3.5 | 7.0 | 0.00 | 0.00 | 0.00 | 78 | 1015.6 |
| 20260906043059 | 82 | 49 | 1.7 | 7.0 | 0.00 | 0.00 | 0.00 | 76 | 1015.4 |
| 20260906041600 | 83 | 45 | 4.3 | 8.7 | 0.00 | 0.00 | 0.00 | 76 | 1015.3 |
| 20260906040107 | 83 | 59 | 1.7 | 5.2 | 0.00 | 0.00 | 0.00 | 75 | 1015.1 |
| 20260906034600 | 83 | 73 | 0.9 | 2.6 | 0.00 | 0.00 | 0.00 | 75 | 1015.0 |
| 20260906033104 | 83 | 73 | 0.0 | 3.5 | 0.00 | 0.00 | 0.00 | 74 | 1014.7 |
| 20260906031604 | 83 | 102 | 0.9 | 3.5 | 0.00 | 0.00 | 0.00 | 74 | 1014.8 |
| 20260906024601 | 84 | 76 | 0.9 | 5.2 | 0.00 | 0.00 | 0.00 | 72 | 1014.4 |
| 20260906023100 | 84 | 84 | 0.9 | 3.5 | 0.00 | 0.00 | 0.00 | 71 | 1014.2 |
| 20260906021615 | 85 | 0 | 0.0 | 3.5 | 0.00 | 0.00 | 0.00 | 70 | 1014.1 |
| 20260906020108 | 85 | 97 | 0.9 | 3.5 | 0.00 | 0.00 | 0.00 | 69 | 1013.9 |
| 20260906014611 | 86 | 101 | 0.9 | 2.6 | 0.00 | 0.00 | 0.00 | 67 | 1013.8 |
| 20260906013107 | 86 | 0 | 0.9 | 3.5 | 0.00 | 0.00 | 0.00 | 67 | 1013.5 |
| 20260906011618 | 87 | 80 | 0.9 | 2.6 | 0.00 | 0.00 | 0.00 | 66 | 1013.4 |
| 20260906004558 | 89 | 81 | 0.9 | 3.5 | 0.00 | 0.00 | 0.00 | 63 | 1013.3 |
| 20260906003103 | 90 | 81 | 0.0 | 2.6 | 0.00 | 0.00 | 0.00 | 61 | 1013.4 |
| 20260906001602 | 91 | 81 | 1.7 | 6.1 | 0.00 | 0.00 | 0.00 | 60 | 1013.4 |
| 20260906000105 | 92 | 53 | 3.5 | 7.0 | 0.00 | 0.00 | 0.00 | 59 | 1013.4 |
| 20260905234606 | 93 | 61 | 1.7 | 5.2 | 0.00 | 0.00 | 0.00 | 58 | 1013.5 |
| 20260905233130 | 93 | 85 | 3.5 | 7.8 | 0.00 | 0.00 | 0.00 | 57 | 1013.4 |
| 20260905231559 | 93 | 62 | 3.5 | 8.7 | 0.00 | 0.00 | 0.00 | 56 | 1013.5 |
| 20260905230104 | 93 | 35 | 3.5 | 7.8 | 0.00 | 0.00 | 0.00 | 56 | 1013.3 |
| 20260905224623 | 93 | 92 | 3.5 | 12.2 | 0.00 | 0.00 | 0.00 | 57 | 1013.2 |
| 20260905223107 | 93 | 30 | 3.5 | 9.6 | 0.00 | 0.00 | 0.00 | 56 | 1013.3 |
| 20260905221604 | 93 | 32 | 5.2 | 11.3 | 0.00 | 0.00 | 0.00 | 57 | 1013.1 |
| 20260905220106 | 93 | 54 | 5.2 | 10.4 | 0.00 | 0.00 | 0.00 | 57 | 1013.1 |
| 20260905214605 | 95 | 37 | 2.6 | 10.4 | 0.00 | 0.00 | 0.00 | 56 | 1013.2 |
| 20260905213105 | 94 | 35 | 5.2 | 10.4 | 0.00 | 0.00 | 0.00 | 55 | 1013.3 |
| 20260905211600 | 95 | 36 | 2.6 | 7.0 | 0.00 | 0.00 | 0.00 | 54 | 1013.5 |
| 20260905210108 | 93 | 319 | 2.6 | 7.0 | 0.00 | 0.00 | 0.00 | 58 | 1013.6 |
| 20260905204606 | 89 | 343 | 2.6 | 5.2 | 0.00 | 0.00 | 0.00 | 65 | 1013.7 |
| 20260905203107 | 88 | 17 | 3.5 | 11.3 | 0.00 | 0.00 | 0.00 | 65 | 1014.3 |
| 20260905201611 | 88 | 16 | 3.5 | 11.3 | 0.00 | 0.00 | 0.00 | 61 | 1014.5 |
| 20260905200104 | 89 | 329 | 7.0 | 17.4 | 0.00 | 0.00 | 0.00 | 48 | 1015.0 |
| 20260905194605 | 100 | 323 | 7.0 | 13.0 | 0.00 | 0.00 | 0.00 | 45 | 1014.9 |
| 20260905193103 | 99 | 147 | 1.7 | 9.6 | 0.00 | 0.00 | 0.00 | 47 | 1014.7 |
| 20260905191611 | 100 | 215 | 1.7 | 7.8 | 0.00 | 0.00 | 0.00 | 44 | 1014.7 |
| 20260905190134 | 100 | 191 | 1.7 | 6.1 | 0.00 | 0.00 | 0.00 | 44 | 1014.9 |
| 20260905184621 | 101 | 211 | 0.9 | 3.5 | 0.00 | 0.00 | 0.00 | 42 | 1015.1 |
| 20260905183103 | 98 | 310 | 3.5 | 7.0 | 0.00 | 0.00 | 0.00 | 45 | 1015.4 |
| 20260905181603 | 98 | 360 | 3.5 | 8.7 | 0.00 | 0.00 | 0.00 | 48 | 1015.5 |
| 20260905174602 | 96 | 123 | 1.7 | 8.7 | 0.00 | 0.00 | 0.00 | 51 | 1015.6 |
| 20260905173104 | 96 | 148 | 2.6 | 5.2 | 0.00 | 0.00 | 0.00 | 50 | 1015.8 |
| 20260905171602 | 95 | 0 | 3.5 | 6.1 | 0.00 | 0.00 | 0.00 | 50 | 1015.7 |
| 20260905170116 | 94 | 218 | 3.5 | 8.7 | 0.00 | 0.00 | 0.00 | 52 | 1015.9 |